Dell, Arkansas
Current Conditions -  °F | °C
As of 7:53 PM on Friday 24 Oct 2014 (Local Time) from KHKA Reporting Station
Clear Clear  
Wind Chill: 17°   Ceiling: Unl
Heat Index: 17°   Visibility: 10mi
Dew Point: 13°   Wind: 3mph
Humidity: 78%   Direction: 260°W
Pressure: 30.08"   Gusts: NA
Location:  35.86°N, 90.04°W
Report Text: KHKA 250053Z AUTO 26003KT 10SM CLR 17/13 A3008 RMK AO2 SLP185 T01670128
Loading
Personal Weather Stations






























Interactive Weather Map
Tropical Storm Tracking
New forecast layout! Learn more

10-Day Weather Forecast

Advertisements
Track Severe Weather on mobile